createdAt,value
2023-04-29T00:00:10.911Z,16.00
2023-04-29T00:02:37.590Z,15.45
2023-04-29T00:05:05.598Z,14.43
2023-04-29T00:07:32.746Z,17.75
2023-04-29T00:09:59.669Z,18.30
2023-04-29T00:12:26.761Z,14.77
2023-04-29T00:14:53.193Z,18.77
2023-04-29T00:17:19.719Z,20.58
2023-04-29T00:19:46.275Z,17.25
2023-04-29T00:22:12.804Z,20.20
2023-04-29T00:24:39.516Z,12.38
2023-04-29T00:27:06.650Z,11.70
2023-04-29T00:29:33.228Z,16.95
2023-04-29T00:32:00.031Z,17.58
2023-04-29T00:34:26.709Z,13.70
2023-04-29T00:36:53.262Z,13.10
2023-04-29T00:39:19.807Z,14.68
2023-04-29T00:41:46.405Z,15.52
2023-04-29T00:44:12.925Z,13.23
2023-04-29T00:46:39.571Z,14.27
2023-04-29T00:49:06.402Z,13.90
2023-04-29T00:51:33.675Z,14.27
2023-04-29T00:54:00.367Z,13.27
2023-04-29T00:56:30.928Z,14.00
2023-04-29T00:58:58.169Z,14.20
2023-04-29T01:01:24.717Z,12.95
2023-04-29T01:03:51.608Z,11.38
2023-04-29T01:06:21.534Z,15.00
2023-04-29T01:09:04.716Z,11.85
2023-04-29T01:11:38.780Z,14.83
2023-04-29T01:14:05.754Z,16.80
2023-04-29T01:16:47.874Z,18.70
2023-04-29T01:19:56.079Z,12.63
2023-04-29T01:22:23.183Z,13.75
2023-04-29T01:24:49.785Z,12.13
2023-04-29T01:27:37.150Z,11.70
2023-04-29T01:30:12.684Z,16.15
2023-04-29T01:32:42.617Z,13.50
2023-04-29T01:35:26.467Z,13.63
2023-04-29T01:38:02.821Z,17.77
2023-04-29T01:40:43.501Z,13.93
2023-04-29T01:43:12.773Z,11.45
2023-04-29T01:45:44.017Z,10.52
2023-04-29T01:48:10.884Z,12.68
2023-04-29T01:50:37.356Z,11.33
2023-04-29T01:53:03.997Z,13.85
2023-04-29T01:55:30.517Z,10.30
2023-04-29T01:57:57.100Z,11.38
2023-04-29T02:00:23.724Z,10.38
2023-04-29T02:02:50.621Z,10.73
2023-04-29T02:05:17.235Z,8.32
2023-04-29T02:07:44.690Z,9.68
2023-04-29T02:10:12.059Z,11.10
2023-04-29T02:12:38.797Z,13.93
2023-04-29T02:15:05.762Z,11.40
2023-04-29T02:17:34.005Z,10.57
2023-04-29T02:20:00.717Z,9.88
2023-04-29T02:22:27.365Z,11.13
2023-04-29T02:24:53.957Z,12.85
2023-04-29T02:27:20.495Z,13.07
2023-04-29T02:29:46.945Z,10.30
2023-04-29T02:32:15.353Z,9.10
2023-04-29T02:34:42.015Z,10.98
2023-04-29T02:37:08.520Z,12.15
2023-04-29T02:39:34.956Z,14.40
2023-04-29T02:42:01.804Z,12.25
2023-04-29T02:44:28.639Z,18.52
2023-04-29T02:46:55.112Z,12.32
2023-04-29T02:49:21.557Z,12.93
2023-04-29T02:51:49.915Z,14.37
2023-04-29T02:54:16.989Z,15.10
2023-04-29T02:56:44.229Z,14.02
2023-04-29T02:59:10.915Z,15.75
2023-04-29T03:01:39.106Z,14.15
2023-04-29T03:04:06.816Z,13.37
2023-04-29T03:06:33.508Z,15.75
2023-04-29T03:09:00.040Z,16.70
2023-04-29T03:11:26.544Z,16.38
2023-04-29T03:13:53.001Z,17.73
2023-04-29T03:16:19.970Z,15.27
2023-04-29T03:18:46.966Z,14.95
2023-04-29T03:21:13.461Z,13.30
2023-04-29T03:23:40.211Z,19.75
2023-04-29T03:26:07.229Z,18.42
2023-04-29T03:28:33.812Z,13.30
2023-04-29T03:31:00.993Z,14.88
2023-04-29T03:33:27.623Z,14.65
2023-04-29T03:35:54.430Z,15.68
2023-04-29T03:38:21.168Z,12.15
2023-04-29T03:40:48.084Z,16.33
2023-04-29T03:43:14.741Z,15.52
2023-04-29T03:45:41.283Z,16.20
2023-04-29T03:48:08.164Z,14.20
2023-04-29T03:50:36.857Z,15.50
2023-04-29T03:53:03.427Z,16.33
2023-04-29T03:55:30.004Z,13.88
2023-04-29T03:57:56.649Z,17.33
2023-04-29T04:00:23.991Z,14.82
2023-04-29T04:02:53.928Z,15.85
2023-04-29T04:05:21.495Z,16.93
2023-04-29T04:07:48.134Z,17.50
2023-04-29T04:10:14.728Z,13.98
2023-04-29T04:12:42.920Z,16.23
2023-04-29T04:15:10.792Z,14.20
2023-04-29T04:17:37.372Z,14.40
2023-04-29T04:20:04.471Z,20.63
2023-04-29T04:22:31.527Z,20.40
2023-04-29T04:24:57.980Z,19.50
2023-04-29T04:27:24.480Z,18.73
2023-04-29T04:29:55.012Z,13.90
2023-04-29T04:32:24.660Z,12.15
2023-04-29T04:34:51.220Z,15.00
2023-04-29T04:37:17.747Z,12.65
2023-04-29T04:39:44.356Z,14.50
2023-04-29T04:42:10.961Z,14.77
2023-04-29T04:44:38.086Z,13.57
2023-04-29T04:47:06.194Z,15.02
2023-04-29T04:49:32.758Z,12.00
2023-04-29T04:51:59.289Z,14.13
2023-04-29T04:54:26.286Z,16.30
2023-04-29T04:56:52.817Z,10.38
2023-04-29T04:59:19.316Z,14.40
2023-04-29T05:01:46.403Z,11.40
2023-04-29T05:04:13.314Z,15.13
2023-04-29T05:06:40.299Z,16.70
2023-04-29T05:09:07.494Z,13.85
2023-04-29T05:11:34.130Z,14.50
2023-04-29T05:14:00.756Z,13.27
2023-04-29T05:16:27.306Z,15.23
2023-04-29T05:18:53.862Z,12.63
2023-04-29T05:21:20.405Z,8.32
2023-04-29T05:23:46.865Z,11.85
2023-04-29T05:26:13.404Z,12.90
2023-04-29T05:28:39.860Z,13.90
2023-04-29T05:31:06.491Z,12.85
2023-04-29T05:33:33.632Z,17.67
2023-04-29T05:36:00.180Z,15.65
2023-04-29T05:38:29.066Z,22.35
2023-04-29T05:40:56.444Z,16.35
2023-04-29T05:43:22.977Z,17.15
2023-04-29T05:45:49.768Z,17.20
2023-04-29T05:48:16.577Z,15.32
2023-04-29T05:50:43.367Z,14.55
2023-04-29T05:53:09.874Z,8.57
2023-04-29T05:55:36.337Z,14.10
2023-04-29T05:58:03.088Z,9.43
2023-04-29T06:00:29.731Z,12.48
2023-04-29T06:02:59.156Z,13.75
2023-04-29T06:05:27.044Z,15.70
2023-04-29T06:07:54.097Z,11.65
2023-04-29T06:10:20.711Z,15.18
2023-04-29T06:12:50.782Z,15.15
2023-04-29T06:15:17.881Z,10.70
2023-04-29T06:17:44.357Z,16.23
2023-04-29T06:20:11.400Z,15.95
2023-04-29T06:22:37.922Z,12.32
2023-04-29T06:25:04.884Z,15.93
2023-04-29T06:27:31.880Z,13.75
2023-04-29T06:29:58.969Z,11.88
2023-04-29T06:32:25.520Z,11.45
2023-04-29T06:34:52.078Z,13.85
2023-04-29T06:37:18.619Z,11.80
2023-04-29T06:39:45.251Z,12.05
2023-04-29T06:42:11.838Z,14.00
2023-04-29T06:44:39.086Z,12.02
2023-04-29T06:47:05.725Z,12.55
2023-04-29T06:49:32.300Z,11.57
2023-04-29T06:51:59.753Z,11.65
2023-04-29T06:54:27.774Z,12.88
2023-04-29T06:56:54.571Z,13.75
2023-04-29T06:59:21.085Z,13.27
2023-04-29T07:01:49.609Z,11.63
2023-04-29T07:04:16.503Z,14.60
2023-04-29T07:06:46.758Z,13.27
2023-04-29T07:09:14.473Z,10.70
2023-04-29T07:11:41.544Z,15.23
2023-04-29T07:14:08.301Z,11.43
2023-04-29T07:16:35.062Z,10.40
2023-04-29T07:19:01.648Z,10.98
2023-04-29T07:21:28.242Z,12.25
2023-04-29T07:23:55.529Z,10.77
2023-04-29T07:26:22.237Z,12.48
2023-04-29T07:28:50.080Z,10.55
2023-04-29T07:31:16.794Z,10.32
2023-04-29T07:33:44.743Z,10.40
2023-04-29T07:36:11.314Z,8.15
2023-04-29T07:38:37.854Z,9.13
2023-04-29T07:41:07.204Z,9.05
2023-04-29T07:43:33.810Z,14.27
2023-04-29T07:46:00.399Z,12.57
2023-04-29T07:48:27.018Z,13.73
2023-04-29T07:50:53.570Z,10.15
2023-04-29T07:53:20.131Z,13.52
2023-04-29T07:55:47.430Z,9.95
2023-04-29T07:58:13.952Z,13.00
2023-04-29T08:00:40.494Z,14.93
2023-04-29T08:03:07.083Z,13.07
2023-04-29T08:05:33.958Z,9.20
2023-04-29T08:08:00.905Z,10.15
2023-04-29T08:10:27.372Z,12.20
2023-04-29T08:12:53.898Z,12.60
2023-04-29T08:15:20.420Z,11.30
2023-04-29T08:17:47.113Z,9.93
2023-04-29T08:20:13.798Z,8.73
2023-04-29T08:22:40.654Z,11.85
2023-04-29T08:25:07.777Z,10.87
2023-04-29T08:27:34.392Z,9.07
2023-04-29T08:30:00.941Z,9.93
2023-04-29T08:32:27.492Z,12.00
2023-04-29T08:34:54.197Z,12.95
2023-04-29T08:37:21.088Z,12.17
2023-04-29T08:39:47.981Z,9.50
2023-04-29T08:42:14.600Z,8.30
2023-04-29T08:44:41.923Z,10.70
2023-04-29T08:47:09.016Z,15.57
2023-04-29T08:49:38.046Z,11.23
2023-04-29T08:52:04.870Z,13.60
2023-04-29T08:54:32.624Z,11.05
2023-04-29T08:57:00.506Z,9.85
2023-04-29T08:59:28.301Z,11.30
2023-04-29T09:01:56.313Z,9.67
2023-04-29T09:04:31.816Z,13.20
2023-04-29T09:06:59.351Z,11.10
2023-04-29T09:09:26.178Z,8.32
2023-04-29T09:11:53.454Z,11.98
2023-04-29T09:14:21.089Z,10.57
2023-04-29T09:16:48.500Z,8.60
2023-04-29T09:19:32.654Z,9.25
2023-04-29T09:22:00.168Z,12.10
2023-04-29T09:24:28.374Z,8.13
2023-04-29T09:26:55.363Z,9.20
2023-04-29T09:29:22.337Z,11.18
2023-04-29T09:31:49.732Z,10.73
2023-04-29T09:34:16.635Z,9.93
2023-04-29T09:36:45.560Z,7.68
2023-04-29T09:39:15.040Z,8.00
2023-04-29T09:41:56.700Z,7.65
2023-04-29T09:44:25.537Z,7.05
2023-04-29T09:47:06.663Z,8.48
2023-04-29T09:49:37.558Z,8.50
2023-04-29T09:52:06.610Z,6.60
2023-04-29T09:54:34.504Z,7.45
2023-04-29T09:57:08.354Z,9.48
2023-04-29T09:59:37.480Z,9.45
2023-04-29T10:02:18.601Z,7.30
2023-04-29T10:04:47.519Z,8.03
2023-04-29T10:07:18.142Z,6.95
2023-04-29T10:09:47.634Z,7.50
2023-04-29T10:12:20.314Z,7.90
2023-04-29T10:14:55.170Z,8.30
2023-04-29T10:17:45.226Z,7.37
2023-04-29T10:20:16.469Z,9.77
2023-04-29T10:22:47.233Z,6.82
2023-04-29T10:25:18.557Z,8.00
2023-04-29T10:27:46.301Z,5.68
2023-04-29T10:30:15.185Z,7.77
2023-04-29T10:32:50.589Z,7.00
2023-04-29T10:35:20.269Z,10.85
2023-04-29T10:37:48.820Z,9.60
2023-04-29T10:40:42.176Z,8.35
2023-04-29T10:43:08.802Z,8.00
2023-04-29T10:45:36.575Z,7.05
2023-04-29T10:48:03.260Z,7.55
2023-04-29T10:50:30.892Z,7.50
2023-04-29T10:52:58.223Z,6.53
2023-04-29T10:55:25.790Z,7.27
2023-04-29T10:57:57.094Z,6.53
2023-04-29T11:00:30.915Z,7.13
2023-04-29T11:02:59.230Z,9.73
2023-04-29T11:05:34.285Z,9.30
2023-04-29T11:08:24.393Z,7.30
2023-04-29T11:11:00.597Z,7.10
2023-04-29T11:13:29.542Z,8.38
2023-04-29T11:16:12.039Z,13.60
2023-04-29T11:19:04.794Z,10.70
2023-04-29T11:21:32.654Z,10.80
2023-04-29T11:24:01.206Z,8.93
2023-04-29T11:26:27.783Z,8.68
2023-04-29T11:28:56.434Z,12.20
2023-04-29T11:31:33.011Z,8.52
2023-04-29T11:34:00.537Z,7.67
2023-04-29T11:36:27.576Z,8.05
2023-04-29T11:38:54.156Z,13.27
2023-04-29T11:41:22.270Z,7.25
2023-04-29T11:43:57.049Z,11.02
2023-04-29T11:46:23.737Z,8.53
2023-04-29T11:48:50.802Z,8.90
2023-04-29T11:51:19.217Z,11.27
2023-04-29T11:53:45.818Z,9.00
2023-04-29T11:56:12.632Z,10.15
2023-04-29T11:58:39.379Z,14.83
2023-04-29T12:01:06.115Z,12.82
2023-04-29T12:03:33.970Z,10.13
2023-04-29T12:06:02.530Z,8.98
2023-04-29T12:08:30.366Z,8.70
2023-04-29T12:10:58.386Z,9.10
2023-04-29T12:13:28.322Z,8.90
2023-04-29T12:15:56.233Z,9.90
2023-04-29T12:18:23.470Z,7.90
2023-04-29T12:20:51.545Z,7.25
2023-04-29T12:23:23.929Z,12.67
2023-04-29T12:25:58.518Z,8.75
2023-04-29T12:28:26.176Z,10.57
2023-04-29T12:30:54.327Z,14.75
2023-04-29T12:33:28.312Z,12.30
2023-04-29T12:35:58.108Z,11.73
2023-04-29T12:38:27.622Z,10.93
2023-04-29T12:40:55.371Z,10.27
2023-04-29T12:43:29.173Z,11.23
2023-04-29T12:46:03.828Z,7.85
2023-04-29T12:48:34.172Z,11.10
2023-04-29T12:51:01.977Z,9.05
2023-04-29T12:53:32.489Z,7.55
2023-04-29T12:55:59.176Z,8.13
2023-04-29T12:58:29.695Z,7.35
2023-04-29T13:00:56.572Z,7.47
2023-04-29T13:03:23.972Z,10.05
2023-04-29T13:05:52.645Z,9.35
2023-04-29T13:08:19.800Z,8.57
2023-04-29T13:10:47.500Z,9.38
2023-04-29T13:13:13.974Z,13.70
2023-04-29T13:15:40.594Z,11.63
2023-04-29T13:18:07.446Z,11.05
2023-04-29T13:20:40.376Z,8.85
2023-04-29T13:23:08.553Z,9.02
2023-04-29T13:25:35.053Z,10.80
2023-04-29T13:28:02.010Z,8.75
2023-04-29T13:30:28.677Z,9.10
2023-04-29T13:32:59.309Z,6.65
2023-04-29T13:35:31.087Z,8.00
2023-04-29T13:37:57.810Z,8.80
2023-04-29T13:40:27.789Z,7.15
2023-04-29T13:43:02.128Z,5.18
2023-04-29T13:45:38.863Z,5.22
2023-04-29T13:48:20.001Z,5.47
2023-04-29T13:51:17.468Z,2.23
2023-04-29T14:01:55.303Z,1.65
2023-04-29T14:04:06.429Z,1.40
2023-04-29T14:06:34.769Z,1.45
2023-04-29T14:09:03.684Z,2.55
2023-04-29T14:11:30.817Z,1.65
2023-04-29T14:13:57.462Z,1.85
2023-04-29T14:16:24.110Z,1.70
2023-04-29T14:18:50.757Z,2.03
2023-04-29T14:21:17.256Z,2.30
2023-04-29T14:23:43.867Z,2.53
2023-04-29T14:26:27.094Z,2.47
2023-04-29T14:28:58.184Z,2.20
2023-04-29T14:31:29.338Z,2.50
2023-04-29T14:33:59.388Z,2.60
2023-04-29T14:36:29.199Z,3.70
2023-04-29T14:38:55.765Z,3.60
2023-04-29T14:41:22.516Z,3.55
2023-04-29T14:43:49.090Z,4.00
2023-04-29T14:46:16.900Z,3.63
2023-04-29T14:48:43.768Z,5.15
2023-04-29T14:51:10.835Z,4.35
2023-04-29T14:53:37.540Z,4.38
2023-04-29T14:56:04.188Z,4.82
2023-04-29T14:58:30.888Z,9.20
2023-04-29T15:00:57.464Z,5.30
2023-04-29T15:03:24.178Z,5.03
2023-04-29T15:05:51.431Z,4.47
2023-04-29T15:08:19.377Z,4.85
2023-04-29T15:10:50.051Z,6.53
2023-04-29T15:13:16.849Z,4.88
2023-04-29T15:15:43.358Z,5.00
2023-04-29T15:18:09.936Z,4.78
2023-04-29T15:20:37.005Z,6.65
2023-04-29T15:23:05.123Z,8.45
2023-04-29T15:25:36.254Z,5.63
2023-04-29T15:28:04.554Z,5.85
2023-04-29T15:30:31.453Z,6.50
2023-04-29T15:32:57.993Z,5.93
2023-04-29T15:35:24.715Z,5.03
2023-04-29T15:37:51.319Z,5.68
2023-04-29T15:40:17.853Z,6.20
2023-04-29T15:42:44.637Z,5.60
2023-04-29T15:45:11.686Z,6.45
2023-04-29T15:47:38.378Z,6.38
2023-04-29T15:50:05.912Z,5.13
2023-04-29T15:52:32.457Z,5.80
2023-04-29T15:54:58.949Z,6.15
2023-04-29T15:57:26.051Z,8.82
2023-04-29T15:59:52.968Z,10.13
2023-04-29T16:02:20.455Z,12.43
2023-04-29T16:04:47.040Z,10.30
2023-04-29T16:07:13.598Z,11.10
2023-04-29T16:09:40.453Z,7.65
2023-04-29T16:12:08.054Z,9.13
2023-04-29T16:14:34.559Z,7.70
2023-04-29T16:17:01.303Z,9.25
2023-04-29T16:19:28.278Z,8.23
2023-04-29T16:21:55.539Z,9.68
2023-04-29T16:24:22.206Z,8.95
2023-04-29T16:26:50.700Z,8.35
2023-04-29T16:29:18.309Z,9.35
2023-04-29T16:31:45.040Z,10.23
2023-04-29T16:34:11.797Z,11.15
2023-04-29T16:36:38.343Z,12.32
2023-04-29T16:39:04.893Z,11.15
2023-04-29T16:41:32.061Z,12.55
2023-04-29T16:43:58.826Z,15.18
2023-04-29T16:46:25.933Z,14.80
2023-04-29T16:48:56.695Z,15.55
2023-04-29T16:51:27.431Z,15.70
2023-04-29T16:53:53.932Z,18.33
2023-04-29T16:56:22.625Z,18.67
2023-04-29T16:58:49.358Z,19.63
2023-04-29T17:01:16.277Z,17.55
2023-04-29T17:03:43.001Z,21.42
2023-04-29T17:06:09.690Z,16.38
2023-04-29T17:08:36.702Z,17.23
2023-04-29T17:11:04.820Z,17.42
2023-04-29T17:13:31.649Z,18.98
2023-04-29T17:15:58.258Z,18.85
2023-04-29T17:18:24.869Z,22.35
2023-04-29T17:20:51.420Z,23.30
2023-04-29T17:23:18.313Z,25.45
2023-04-29T17:25:45.128Z,29.15
2023-04-29T17:28:11.799Z,22.35
2023-04-29T17:30:38.456Z,26.30
2023-04-29T17:33:08.862Z,29.48
2023-04-29T17:35:35.371Z,26.77
2023-04-29T17:38:01.979Z,26.92
2023-04-29T17:40:28.634Z,35.90
2023-04-29T17:42:55.217Z,35.70
2023-04-29T17:45:21.785Z,33.13
2023-04-29T17:47:48.645Z,32.75
2023-04-29T17:50:15.363Z,35.20
2023-04-29T17:52:42.805Z,38.45
2023-04-29T17:55:10.073Z,32.78
2023-04-29T17:57:38.185Z,40.08
2023-04-29T18:00:08.522Z,36.53
2023-04-29T18:02:35.142Z,39.83
2023-04-29T18:05:03.450Z,36.13
2023-04-29T18:07:30.140Z,41.97
2023-04-29T18:09:57.458Z,43.95
2023-04-29T18:12:24.926Z,40.38
2023-04-29T18:14:52.046Z,47.88
2023-04-29T18:17:19.113Z,42.70
2023-04-29T18:19:49.523Z,50.67
2023-04-29T18:22:16.124Z,50.33
2023-04-29T18:24:43.486Z,62.10
2023-04-29T18:27:10.035Z,59.38
2023-04-29T18:29:36.460Z,55.28
2023-04-29T18:32:04.376Z,67.03
2023-04-29T18:34:32.340Z,60.67
2023-04-29T18:36:58.805Z,51.65
2023-04-29T18:39:25.465Z,67.10
2023-04-29T18:41:52.181Z,57.78
2023-04-29T18:44:18.921Z,66.53
2023-04-29T18:46:45.488Z,51.72
2023-04-29T18:49:16.090Z,50.33
2023-04-29T18:51:46.549Z,48.38
2023-04-29T18:54:15.380Z,46.20
2023-04-29T18:56:43.208Z,44.17
2023-04-29T18:59:10.164Z,43.20
2023-04-29T19:01:36.691Z,40.08
2023-04-29T19:04:04.621Z,36.38
2023-04-29T19:06:32.498Z,39.50
2023-04-29T19:08:59.186Z,34.10
2023-04-29T19:11:26.449Z,32.80
2023-04-29T19:13:54.542Z,31.73
2023-04-29T19:16:21.392Z,31.77
2023-04-29T19:18:47.982Z,33.28
2023-04-29T19:21:15.487Z,34.93
2023-04-29T19:23:42.371Z,35.65
2023-04-29T19:26:09.824Z,34.00
2023-04-29T19:28:36.531Z,33.20
2023-04-29T19:31:03.340Z,29.67
2023-04-29T19:33:30.796Z,26.52
2023-04-29T19:35:57.660Z,30.95
2023-04-29T19:38:25.550Z,28.13
2023-04-29T19:40:54.600Z,30.05
2023-04-29T19:43:21.220Z,22.63
2023-04-29T19:45:47.767Z,18.73
2023-04-29T19:48:14.438Z,19.13
2023-04-29T19:50:41.369Z,19.10
2023-04-29T19:53:07.963Z,19.48
2023-04-29T19:55:34.607Z,18.40
2023-04-29T19:58:01.140Z,16.50
2023-04-29T20:00:27.752Z,18.65
2023-04-29T20:02:54.352Z,15.68
2023-04-29T20:05:21.317Z,26.02
2023-04-29T20:07:47.915Z,17.00
2023-04-29T20:10:14.491Z,14.63
2023-04-29T20:12:41.225Z,13.43
2023-04-29T20:15:09.454Z,12.10
2023-04-29T20:17:37.542Z,15.23
2023-04-29T20:20:04.855Z,13.07
2023-04-29T20:22:31.494Z,14.27
2023-04-29T20:24:58.016Z,10.23
2023-04-29T20:27:24.557Z,15.63
2023-04-29T20:29:51.330Z,13.85
2023-04-29T20:32:18.107Z,12.35
2023-04-29T20:34:44.715Z,11.73
2023-04-29T20:37:11.292Z,12.75
2023-04-29T20:39:37.885Z,13.77
2023-04-29T20:42:04.545Z,11.95
2023-04-29T20:44:31.435Z,12.43
2023-04-29T20:46:57.962Z,10.47
2023-04-29T20:49:24.969Z,12.77
2023-04-29T20:51:51.693Z,14.93
2023-04-29T20:54:18.253Z,12.57
2023-04-29T20:56:44.824Z,10.75
2023-04-29T20:59:11.362Z,10.10
2023-04-29T21:01:38.142Z,10.35
2023-04-29T21:04:05.622Z,10.85
2023-04-29T21:06:32.470Z,10.77
2023-04-29T21:08:59.676Z,10.48
2023-04-29T21:11:26.413Z,11.50
2023-04-29T21:13:54.034Z,11.05
2023-04-29T21:16:20.720Z,9.48
2023-04-29T21:18:47.334Z,11.35
2023-04-29T21:21:13.877Z,10.82
2023-04-29T21:23:40.454Z,13.40
2023-04-29T21:26:06.981Z,11.77
2023-04-29T21:28:33.721Z,11.13
2023-04-29T21:31:00.254Z,10.68
2023-04-29T21:33:26.727Z,12.98
2023-04-29T21:35:53.168Z,11.73
2023-04-29T21:38:19.962Z,15.40
2023-04-29T21:40:47.882Z,14.43
2023-04-29T21:43:15.955Z,13.82
2023-04-29T21:45:43.782Z,11.27
2023-04-29T21:48:10.352Z,12.07
2023-04-29T21:50:37.911Z,10.63
2023-04-29T21:53:04.373Z,11.20
2023-04-29T21:55:31.072Z,11.48
2023-04-29T21:57:57.876Z,11.50
2023-04-29T22:00:33.760Z,12.47
2023-04-29T22:03:01.661Z,10.13
2023-04-29T22:05:28.351Z,10.02
2023-04-29T22:07:57.744Z,12.40
2023-04-29T22:10:24.449Z,10.13
2023-04-29T22:12:51.627Z,10.67
2023-04-29T22:15:28.312Z,11.35
2023-04-29T22:17:55.974Z,10.02
2023-04-29T22:20:22.593Z,10.82
2023-04-29T22:22:49.195Z,10.10
2023-04-29T22:25:15.713Z,13.73
2023-04-29T22:27:42.434Z,11.88
2023-04-29T22:30:09.355Z,12.00
2023-04-29T22:32:36.294Z,10.85
2023-04-29T22:35:03.122Z,10.70
2023-04-29T22:37:29.781Z,9.63
2023-04-29T22:39:57.002Z,11.70
2023-04-29T22:42:23.747Z,11.88
2023-04-29T22:44:50.211Z,12.90
2023-04-29T22:47:16.866Z,12.55
2023-04-29T22:49:43.362Z,10.77
2023-04-29T22:52:09.950Z,13.07
2023-04-29T22:54:36.486Z,14.98
2023-04-29T22:57:04.064Z,13.90
2023-04-29T22:59:30.829Z,15.43
2023-04-29T23:01:57.705Z,12.17
2023-04-29T23:04:24.779Z,10.77
2023-04-29T23:06:51.789Z,10.45
2023-04-29T23:09:18.405Z,11.15
2023-04-29T23:11:45.069Z,9.55
2023-04-29T23:14:11.688Z,9.53
2023-04-29T23:16:38.156Z,8.20
2023-04-29T23:19:04.820Z,9.55
2023-04-29T23:21:32.454Z,14.65
2023-04-29T23:23:58.969Z,16.80
2023-04-29T23:26:25.992Z,16.70
2023-04-29T23:28:52.549Z,13.57
2023-04-29T23:31:19.190Z,12.15
2023-04-29T23:33:46.158Z,13.85
2023-04-29T23:36:12.842Z,15.57
2023-04-29T23:38:39.345Z,14.30
2023-04-29T23:41:06.048Z,15.07
2023-04-29T23:43:32.641Z,11.40
2023-04-29T23:45:59.141Z,12.40
2023-04-29T23:48:25.691Z,11.77
2023-04-29T23:50:52.132Z,11.70
2023-04-29T23:53:18.747Z,10.90
2023-04-29T23:55:45.402Z,11.68
2023-04-29T23:58:11.939Z,15.38
